Time;durP1;ratioP1;P1;durP2;ratioP2;P2;SDS_P1;SDS_P2;PMS_P1;PMS_P2;Temp;Humidity;BMP_temperature;BMP_pressure;BME280_temperature;BME280_humidity;BME280_pressure;Samples;Min_cycle;Max_cycle;Signal;HPM_P1;HPM_P2
2022/11/26 00:02:21;;;;;;;;;;;;;;;;;;4420344;32;20022;-69
2022/11/26 00:04:47;;;;;;;26.22;8.14;;;;;;;;;;4421306;32;19968;-69
2022/11/26 00:07:12;;;;;;;;;;;;;;;;;;4424198;32;20022;-69
2022/11/26 00:09:38;;;;;;;28.65;7.87;;;;;;;;;;4424481;32;19941;-69
2022/11/26 00:12:14;;;;;;;21.65;7.43;;;;;;;;;;4423298;32;20022;-69
2022/11/26 00:14:39;;;;;;;32.17;7.53;;;;;;;;;;4422715;32;20025;-70
2022/11/26 00:17:04;;;;;;;;;;;;;;;;;;4423575;32;20077;-70
2022/11/26 00:19:29;;;;;;;31.83;7.75;;;;;;;;;;4423396;32;19945;-69
2022/11/26 00:21:54;;;;;;;22.68;7.06;;;;;;;;;;4422759;32;20022;-70
2022/11/26 00:24:19;;;;;;;;;;;;;;;;;;4424740;32;20060;-69
2022/11/26 00:26:45;;;;;;;32.17;7.35;;;;;;;;;;4424861;32;19937;-69
2022/11/26 00:29:10;;;;;;;;;;;;;;;;;;4422941;32;20038;-69
2022/11/26 00:31:35;;;;;;;21.54;7.26;;;;;;;;;;4424217;32;19948;-69
2022/11/26 00:34:00;;;;;;;;;;;;;;;;;;4423120;32;20050;-69
2022/11/26 00:36:30;;;;;;;26.45;7.57;;;;;;;;;;4423020;32;19945;-69
2022/11/26 00:39:05;;;;;;;39.25;8.75;;;;;;;;;;4422587;32;20105;-70
2022/11/26 00:41:35;;;;;;;37.78;9.45;;;;;;;;;;4423835;32;20022;-70
2022/11/26 00:44:00;;;;;;;29.52;8.27;;;;;;;;;;4424556;32;20414;-70
2022/11/26 00:46:25;;;;;;;;;;;;;;;;;;4424388;32;20121;-69
2022/11/26 00:48:50;;;;;;;26.73;9.57;;;;;;;;;;4424782;32;19949;-70
2022/11/26 00:51:21;;;;;;;27.80;7.30;;;;;;;;;;4424372;32;20025;-70
2022/11/26 00:53:46;;;;;;;43.80;9.45;;;;;;;;;;4424452;32;20363;-70
2022/11/26 00:56:11;;;;;;;;;;;;;;;;;;4424257;32;20093;-70
2022/11/26 00:58:37;;;;;;;23.17;9.30;;;;;;;;;;4423422;32;19961;-70
2022/11/26 01:01:02;;;;;;;;;;;;;;;;;;4422486;32;20121;-71
2022/11/26 01:03:28;;;;;;;34.45;8.77;;;;;;;;;;4424202;32;19971;-70
2022/11/26 01:05:55;;;;;;;33.88;9.10;;;;;;;;;;4422536;32;20209;-70
2022/11/26 01:08:27;;;;;;;17.30;7.47;;;;;;;;;;4423835;32;20026;-70
2022/11/26 01:10:52;;;;;;;31.48;9.60;;;;;;;;;;4429886;32;20021;-69
2022/11/26 01:13:17;;;;;;;;;;;;;;;;;;4437763;32;20082;-69
2022/11/26 01:15:42;;;;;;;23.98;8.60;;;;;;;;;;4439709;32;19977;-69
2022/11/26 01:18:10;;;;;;;33.75;9.27;;;;;;;;;;4437511;32;20398;-70
2022/11/26 01:20:36;;;;;;;21.45;8.20;;;;;;;;;;4437709;32;20033;-70
2022/11/26 01:23:01;;;;;;;;;;;;;;;;;;4438601;32;20411;-69
2022/11/26 01:25:26;;;;;;;34.30;8.27;;;;;;;;;;4439019;32;19941;-69
2022/11/26 01:27:51;;;;;;;26.62;8.90;;;;;;;;;;4437836;32;20052;-69
2022/11/26 01:30:17;;;;;;;;;;;;;;;;;;4438154;32;20071;-69
2022/11/26 01:32:42;;;;;;;27.50;9.60;;;;;;;;;;4437022;32;19948;-69
2022/11/26 01:35:07;;;;;;;37.42;10.13;;;;;;;;;;4439019;32;20026;-69
2022/11/26 01:37:32;;;;;;;;;;;;;;;;;;4438031;32;20048;-69
2022/11/26 01:39:57;;;;;;;37.55;9.98;;;;;;;;;;4417298;27;19977;-68
2022/11/26 01:42:23;;;;;;;;;;;;;;;;;;4406653;32;20118;-68
2022/11/26 01:44:48;;;;;;;27.58;10.88;;;;;;;;;;4407658;32;20256;-69
2022/11/26 01:47:13;;;;;;;;;;;;;;;;;;4406660;32;20122;-68
2022/11/26 01:49:38;;;;;;;32.60;10.75;;;;;;;;;;4407247;32;19981;-69
2022/11/26 01:52:06;;;;;;;28.90;11.25;;;;;;;;;;4406667;32;20026;-69
2022/11/26 01:54:32;;;;;;;36.63;12.00;;;;;;;;;;4406370;32;20375;-69
2022/11/26 01:57:02;;;;;;;32.42;10.85;;;;;;;;;;4404615;32;20467;-69
2022/11/26 01:59:32;;;;;;;28.52;12.82;;;;;;;;;;4406537;32;20117;-69
2022/11/26 02:01:57;;;;;;;27.90;11.20;;;;;;;;;;4405708;32;20229;-69
2022/11/26 02:04:22;;;;;;;;;;;;;;;;;;4406206;32;20461;-69
2022/11/26 02:06:48;;;;;;;36.20;12.45;;;;;;;;;;4406933;32;19969;-67
2022/11/26 02:09:13;;;;;;;;;;;;;;;;;;4407265;32;20122;-68
2022/11/26 02:11:39;;;;;;;33.30;13.00;;;;;;;;;;4392191;32;19941;-68
2022/11/26 02:14:04;;;;;;;;;;;;;;;;;;4399554;32;20562;-69
2022/11/26 02:16:52;;;;;;;36.97;12.95;;;;;;;;;;4406524;32;19996;-68
2022/11/26 02:19:20;;;;;;;38.00;13.90;;;;;;;;;;4406541;32;20206;-68
2022/11/26 02:21:49;;;;;;;36.53;13.38;;;;;;;;;;4406062;32;20171;-68
2022/11/26 02:24:14;;;;;;;26.62;12.80;;;;;;;;;;4405567;32;20052;-68
2022/11/26 02:26:39;;;;;;;;;;;;;;;;;;4406461;32;20101;-69
2022/11/26 02:29:13;;;;;;;36.38;13.75;;;;;;;;;;4404836;32;19937;-69
2022/11/26 02:31:47;;;;;;;30.42;13.93;;;;;;;;;;4405914;32;20115;-69
2022/11/26 02:34:15;;;;;;;43.60;14.05;;;;;;;;;;4405444;32;20075;-68
2022/11/26 02:36:49;;;;;;;37.90;13.10;;;;;;;;;;4405173;32;20313;-68
2022/11/26 02:39:16;;;;;;;34.92;14.02;;;;;;;;;;4405367;32;20384;-68
2022/11/26 02:41:42;;;;;;;45.75;15.75;;;;;;;;;;4405084;32;20026;-69
2022/11/26 02:44:07;;;;;;;35.78;15.02;;;;;;;;;;4397540;32;20457;-69
2022/11/26 02:46:32;;;;;;;;;;;;;;;;;;4391906;32;20031;-69
2022/11/26 02:48:58;;;;;;;46.67;15.93;;;;;;;;;;4391291;32;20028;-69
2022/11/26 02:51:23;;;;;;;;;;;;;;;;;;4406082;32;20139;-69
2022/11/26 02:53:49;;;;;;;27.98;14.05;;;;;;;;;;4391711;32;19948;-69
2022/11/26 02:56:16;;;;;;;53.20;15.23;;;;;;;;;;4404045;32;20172;-68
2022/11/26 02:58:42;;;;;;;43.33;15.73;;;;;;;;;;4406096;32;20026;-69
2022/11/26 03:01:13;;;;;;;45.85;16.15;;;;;;;;;;4405329;32;20145;-68
2022/11/26 03:03:42;;;;;;;39.10;15.80;;;;;;;;;;4390978;32;20034;-68
2022/11/26 03:06:08;;;;;;;39.65;15.15;;;;;;;;;;4406306;32;20100;-69
2022/11/26 03:08:33;;;;;;;36.25;15.82;;;;;;;;;;4391296;32;20384;-68
2022/11/26 03:10:59;;;;;;;;;;;;;;;;;;4391117;32;20015;-69
2022/11/26 03:13:24;;;;;;;37.45;13.25;;;;;;;;;;4391367;32;20359;-68
2022/11/26 03:15:49;;;;;;;41.28;14.13;;;;;;;;;;4405431;32;20076;-68
2022/11/26 03:18:14;;;;;;;;;;;;;;;;;;4405624;32;20117;-68
2022/11/26 03:20:39;;;;;;;41.60;15.14;;;;;;;;;;4404662;32;19953;-69
2022/11/26 03:23:05;;;;;;;;;;;;;;;;;;4406376;32;20026;-70
2022/11/26 03:25:30;;;;;;;41.00;16.25;;;;;;;;;;4404826;32;19933;-69
2022/11/26 03:27:55;;;;;;;;;;;;;;;;;;4405144;32;20146;-69
2022/11/26 03:30:20;;;;;;;39.97;15.65;;;;;;;;;;4391621;32;19941;-69
2022/11/26 03:32:45;;;;;;;;;;;;;;;;;;4405820;32;20141;-69
2022/11/26 03:35:10;;;;;;;29.52;14.60;;;;;;;;;;4405032;32;19972;-69
2022/11/26 03:37:35;;;;;;;;;;;;;;;;;;4391558;32;20118;-69
2022/11/26 03:40:01;;;;;;;30.98;14.85;;;;;;;;;;4399031;32;19955;-69
2022/11/26 03:42:26;;;;;;;50.03;17.25;;;;;;;;;;4402506;32;20035;-69
2022/11/26 03:44:51;;;;;;;40.22;16.45;;;;;;;;;;4393925;32;20421;-70
2022/11/26 03:47:16;;;;;;;;;;;;;;;;;;4406843;32;20455;-70
2022/11/26 03:49:42;;;;;;;36.00;15.30;;;;;;;;;;4407875;32;19968;-69
2022/11/26 03:52:07;;;;;;;;;;;;;;;;;;4394579;32;20199;-69
2022/11/26 03:54:32;;;;;;;38.42;14.02;;;;;;;;;;4401954;32;20000;-69
2022/11/26 03:56:57;;;;;;;;;;;;;;;;;;4379222;32;20548;-68
2022/11/26 03:59:22;;;;;;;36.55;14.70;;;;;;;;;;4391826;32;20299;-68
2022/11/26 04:01:47;;;;;;;39.67;15.80;;;;;;;;;;4393490;32;20023;-68
2022/11/26 04:04:12;;;;;;;;;;;;;;;;;;4392037;32;20073;-68
2022/11/26 04:06:38;;;;;;;48.17;16.60;;;;;;;;;;4378071;32;19999;-68
2022/11/26 04:09:03;;;;;;;;;;;;;;;;;;4393061;32;20138;-69
2022/11/26 04:11:28;;;;;;;42.88;15.48;;;;;;;;;;4406440;32;19976;-69
2022/11/26 04:13:53;;;;;;;;;;;;;;;;;;4408023;32;20452;-69
2022/11/26 04:16:19;;;;;;;50.82;21.16;;;;;;;;;;4407986;32;20288;-69
2022/11/26 04:18:44;;;;;;;;;;;;;;;;;;4407298;32;20030;-70
2022/11/26 04:21:09;;;;;;;43.72;16.02;;;;;;;;;;4407451;32;19941;-69
2022/11/26 04:23:34;;;;;;;;;;;;;;;;;;4404489;32;20056;-67
2022/11/26 04:26:00;;;;;;;30.73;15.45;;;;;;;;;;4378506;32;19938;-68
2022/11/26 04:28:25;;;;;;;;;;;;;;;;;;4392196;32;20173;-68
2022/11/26 04:30:50;;;;;;;34.30;15.77;;;;;;;;;;4392376;32;19984;-67
2022/11/26 04:33:15;;;;;;;;;;;;;;;;;;4379770;32;20165;-68
2022/11/26 04:35:41;;;;;;;40.12;17.65;;;;;;;;;;4393554;32;19934;-68
2022/11/26 04:38:06;;;;;;;;;;;;;;;;;;4392130;32;20445;-68
2022/11/26 04:40:31;;;;;;;28.92;14.32;;;;;;;;;;4384675;32;19971;-68
2022/11/26 04:42:56;;;;;;;;;;;;;;;;;;4394607;32;20229;-69
2022/11/26 04:45:21;;;;;;;38.83;16.05;;;;;;;;;;4407943;32;19976;-69
2022/11/26 04:47:46;;;;;;;;;;;;;;;;;;4407501;32;20629;-69
2022/11/26 04:50:12;;;;;;;36.22;16.92;;;;;;;;;;4393747;32;19938;-68
2022/11/26 04:52:37;;;;;;;38.85;18.50;;;;;;;;;;4392694;32;20092;-69
2022/11/26 04:55:02;;;;;;;;;;;;;;;;;;4393947;32;20072;-69
2022/11/26 04:57:27;;;;;;;42.05;19.35;;;;;;;;;;4406666;32;19984;-69
2022/11/26 04:59:52;;;;;;;40.38;20.20;;;;;;;;;;4407129;32;20364;-69
2022/11/26 05:02:17;;;;;;;;;;;;;;;;;;4394490;32;20038;-69
2022/11/26 05:04:43;;;;;;;51.65;23.38;;;;;;;;;;4407397;32;19952;-68
2022/11/26 05:07:08;;;;;;;61.97;22.13;;;;;;;;;;4407629;32;20038;-69
2022/11/26 05:09:33;;;;;;;;;;;;;;;;;;4403910;32;20045;-69
2022/11/26 05:11:58;;;;;;;56.90;21.60;;;;;;;;;;4392689;32;19941;-69
2022/11/26 05:14:23;;;;;;;;;;;;;;;;;;4391820;32;20098;-69
2022/11/26 05:16:48;;;;;;;51.36;21.56;;;;;;;;;;4391464;32;20218;-69
2022/11/26 05:19:14;;;;;;;;;;;;;;;;;;4378725;32;20022;-69
2022/11/26 05:21:40;;;;;;;57.22;24.02;;;;;;;;;;4391274;32;19987;-69
2022/11/26 05:24:05;;;;;;;;;;;;;;;;;;4392317;32;20158;-69
2022/11/26 05:26:30;;;;;;;48.78;22.13;;;;;;;;;;4390943;32;19942;-69
2022/11/26 05:28:55;;;;;;;;;;;;;;;;;;4392129;32;20049;-69
2022/11/26 05:31:20;;;;;;;52.03;23.55;;;;;;;;;;4391674;32;19949;-69
2022/11/26 05:33:45;;;;;;;;;;;;;;;;;;4393117;32;20547;-69
2022/11/26 05:36:10;;;;;;;48.65;22.62;;;;;;;;;;4391177;32;20199;-68
2022/11/26 05:38:36;;;;;;;43.45;22.40;;;;;;;;;;4390914;32;20092;-69
2022/11/26 05:41:01;;;;;;;;;;;;;;;;;;4390547;32;20090;-69
2022/11/26 05:43:26;;;;;;;51.72;23.87;;;;;;;;;;4407035;32;19979;-70
2022/11/26 05:45:51;;;;;;;42.17;23.35;;;;;;;;;;4405000;32;20092;-69
2022/11/26 05:48:16;;;;;;;49.30;24.05;;;;;;;;;;4387736;32;20090;-69
2022/11/26 05:50:41;;;;;;;50.67;23.77;;;;;;;;;;4390100;32;20488;-71
2022/11/26 05:53:07;;;;;;;;;;;;;;;;;;4378036;32;20188;-68
2022/11/26 05:55:32;;;;;;;66.70;26.10;;;;;;;;;;4391202;32;19972;-67
2022/11/26 05:57:57;;;;;;;;;;;;;;;;;;4377116;32;20211;-69
2022/11/26 06:00:22;;;;;;;59.85;25.60;;;;;;;;;;4392166;32;19938;-69
2022/11/26 06:02:47;;;;;;;;;;;;;;;;;;4391243;32;20123;-69
2022/11/26 06:05:13;;;;;;;45.70;21.80;;;;;;;;;;4390783;32;19968;-68
2022/11/26 06:07:38;;;;;;;56.83;23.85;;;;;;;;;;4376420;32;20467;-69
2022/11/26 06:10:03;;;;;;;;;;;;;;;;;;4377152;32;20344;-68
2022/11/26 06:12:28;;;;;;;54.65;21.42;;;;;;;;;;4390642;32;19984;-69
2022/11/26 06:14:53;;;;;;;;;;;;;;;;;;4393118;32;20130;-69
2022/11/26 06:17:19;;;;;;;53.67;22.30;;;;;;;;;;4402314;32;19949;-71
2022/11/26 06:19:44;;;;;;;;;;;;;;;;;;4391499;32;20126;-69
2022/11/26 06:22:09;;;;;;;52.80;22.96;;;;;;;;;;4405329;32;19948;-69
2022/11/26 06:24:34;;;;;;;;;;;;;;;;;;4406731;32;20019;-69
2022/11/26 06:26:59;;;;;;;67.45;26.60;;;;;;;;;;4406330;32;20000;-69
2022/11/26 06:29:24;;;;;;;;;;;;;;;;;;4392743;32;20145;-69
2022/11/26 06:31:49;;;;;;;73.20;26.95;;;;;;;;;;4393188;32;19942;-68
2022/11/26 06:34:15;;;;;;;;;;;;;;;;;;4405995;32;20712;-70
2022/11/26 06:36:40;;;;;;;55.25;23.40;;;;;;;;;;4392919;32;19961;-68
2022/11/26 06:39:05;;;;;;;;;;;;;;;;;;4405665;32;20532;-70
2022/11/26 06:41:30;;;;;;;57.50;24.08;;;;;;;;;;4391734;32;19987;-70
2022/11/26 06:43:57;;;;;;;57.13;22.77;;;;;;;;;;4405741;32;20071;-68
2022/11/26 06:46:22;;;;;;;60.90;25.40;;;;;;;;;;4384671;32;20027;-70
2022/11/26 06:48:47;;;;;;;;;;;;;;;;;;4390160;32;20031;-69
2022/11/26 06:51:13;;;;;;;58.20;25.62;;;;;;;;;;4376045;32;19938;-69
2022/11/26 06:53:38;;;;;;;70.62;26.08;;;;;;;;;;4390321;32;20180;-68
2022/11/26 06:56:03;;;;;;;;;;;;;;;;;;4390660;32;20022;-68
2022/11/26 06:58:29;;;;;;;71.03;26.15;;;;;;;;;;4391845;32;19949;-70
2022/11/26 07:00:54;;;;;;;54.78;24.92;;;;;;;;;;4376061;32;20365;-70
2022/11/26 07:03:19;;;;;;;;;;;;;;;;;;4376727;32;20016;-69
2022/11/26 07:05:44;;;;;;;73.35;25.02;;;;;;;;;;4377798;32;20350;-70
2022/11/26 07:08:09;;;;;;;;;;;;;;;;;;4390932;32;20188;-70
2022/11/26 07:10:35;;;;;;;74.35;31.00;;;;;;;;;;4389257;32;19930;-69
2022/11/26 07:13:00;;;;;;;;;;;;;;;;;;4391164;32;20081;-69
2022/11/26 07:15:25;;;;;;;50.94;22.46;;;;;;;;;;4390505;32;19938;-69
2022/11/26 07:17:50;;;;;;;;;;;;;;;;;;4389632;32;20061;-69
2022/11/26 07:20:15;;;;;;;55.55;25.20;;;;;;;;;;4390108;32;19950;-69
2022/11/26 07:22:40;;;;;;;;;;;;;;;;;;4391382;32;20145;-69
2022/11/26 07:25:06;;;;;;;63.00;23.33;;;;;;;;;;4390453;32;19952;-69
2022/11/26 07:27:31;;;;;;;49.58;23.65;;;;;;;;;;4390781;32;20471;-69
2022/11/26 07:29:56;;;;;;;;;;;;;;;;;;4390190;32;20397;-69
2022/11/26 07:32:21;;;;;;;58.04;20.62;;;;;;;;;;4389523;32;19963;-69
2022/11/26 07:34:46;;;;;;;;;;;;;;;;;;4390370;32;20058;-68
2022/11/26 07:37:12;;;;;;;50.12;19.20;;;;;;;;;;4389984;32;19952;-70
2022/11/26 07:39:37;;;;;;;60.67;20.20;;;;;;;;;;4389332;32;20104;-69
2022/11/26 07:42:02;;;;;;;;;;;;;;;;;;4390717;32;20446;-69
2022/11/26 07:44:28;;;;;;;63.25;17.98;;;;;;;;;;4389890;32;20028;-69
2022/11/26 07:46:53;;;;;;;;;;;;;;;;;;4400290;32;20176;-69
2022/11/26 07:49:18;;;;;;;50.97;17.48;;;;;;;;;;4390069;32;19981;-69
2022/11/26 07:51:43;;;;;;;44.28;18.30;;;;;;;;;;4389668;32;20423;-69
2022/11/26 07:54:08;;;;;;;;;;;;;;;;;;4390621;32;20080;-70
2022/11/26 07:56:34;;;;;;;46.47;17.20;;;;;;;;;;4389146;32;19934;-69
2022/11/26 07:58:59;;;;;;;;;;;;;;;;;;4390868;32;20049;-69
2022/11/26 08:01:31;;;;;;;46.03;17.33;;;;;;;;;;4390035;32;19934;-69
2022/11/26 08:03:57;;;;;;;52.30;19.60;;;;;;;;;;4390979;32;20133;-68
2022/11/26 08:06:24;;;;;;;43.42;18.20;;;;;;;;;;4389467;32;20031;-69
2022/11/26 08:08:49;;;;;;;56.97;20.50;;;;;;;;;;4390412;32;20023;-69
2022/11/26 08:11:14;;;;;;;;;;;;;;;;;;4390085;32;20080;-70
2022/11/26 08:13:40;;;;;;;69.30;19.15;;;;;;;;;;4375426;32;19938;-69
2022/11/26 08:16:05;;;;;;;49.45;18.08;;;;;;;;;;4393737;32;20052;-69
2022/11/26 08:18:30;;;;;;;;;;;;;;;;;;4396603;32;20050;-71
2022/11/26 08:20:56;;;;;;;54.03;18.85;;;;;;;;;;4393164;32;20108;-69
2022/11/26 08:23:22;;;;;;;45.67;17.35;;;;;;;;;;4390875;32;20046;-70
2022/11/26 08:25:47;;;;;;;;;;;;;;;;;;4390416;32;20084;-69
2022/11/26 08:28:12;;;;;;;52.95;18.15;;;;;;;;;;4379595;32;19993;-69
2022/11/26 08:30:37;;;;;;;;;;;;;;;;;;4378223;32;20184;-70
2022/11/26 08:33:02;;;;;;;43.80;16.45;;;;;;;;;;4392231;32;19945;-70
2022/11/26 08:35:27;;;;;;;;;;;;;;;;;;4380044;32;20495;-71
2022/11/26 08:37:53;;;;;;;45.75;18.17;;;;;;;;;;4380745;32;19942;-69
2022/11/26 08:40:18;;;;;;;;;;;;;;;;;;4376924;32;20135;-69
2022/11/26 08:42:43;;;;;;;55.20;16.67;;;;;;;;;;4377045;32;20268;-69
2022/11/26 08:45:08;;;;;;;47.25;16.98;;;;;;;;;;4387532;32;20092;-69
2022/11/26 08:47:33;;;;;;;;;;;;;;;;;;4392078;32;20073;-69
2022/11/26 08:49:59;;;;;;;53.30;17.15;;;;;;;;;;4406926;32;19941;-69
2022/11/26 08:52:24;;;;;;;;;;;;;;;;;;4406675;32;20340;-69
2022/11/26 08:54:49;;;;;;;50.03;17.48;;;;;;;;;;4407395;32;20342;-69
2022/11/26 08:57:14;;;;;;;;;;;;;;;;;;4407346;32;20053;-70
2022/11/26 08:59:39;;;;;;;41.42;15.70;;;;;;;;;;4406920;32;19963;-69
2022/11/26 09:02:05;;;;;;;41.83;14.40;;;;;;;;;;4406644;32;20038;-68
2022/11/26 09:04:30;;;;;;;;;;;;;;;;;;4407843;32;20057;-69
2022/11/26 09:06:56;;;;;;;46.28;17.15;;;;;;;;;;4407300;32;20021;-68
2022/11/26 09:09:21;;;;;;;45.58;15.27;;;;;;;;;;4393446;32;20337;-69
2022/11/26 09:11:46;;;;;;;;;;;;;;;;;;4407136;32;20045;-69
2022/11/26 09:14:11;;;;;;;41.60;16.42;;;;;;;;;;4406952;32;20202;-69
2022/11/26 09:16:37;;;;;;;;;;;;;;;;;;4406125;32;20811;-70
2022/11/26 09:19:02;;;;;;;47.13;15.30;;;;;;;;;;4407006;32;19948;-70
2022/11/26 09:21:28;;;;;;;;;;;;;;;;;;4393967;32;20084;-69
2022/11/26 09:23:53;;;;;;;44.63;15.32;;;;;;;;;;4392290;32;19934;-68
2022/11/26 09:26:21;;;;;;;;;;;;;;;;;;4407380;32;20118;-69
2022/11/26 09:28:47;;;;;;;46.60;16.37;;;;;;;;;;4393067;32;19937;-70
2022/11/26 09:31:12;;;;;;;;;;;;;;;;;;4392730;32;20381;-71
2022/11/26 09:33:37;;;;;;;43.98;16.16;;;;;;;;;;4392427;32;19941;-70
2022/11/26 09:36:02;;;;;;;;;;;;;;;;;;4393044;32;20022;-70
2022/11/26 09:38:28;;;;;;;42.10;15.95;;;;;;;;;;4392327;32;19934;-70
2022/11/26 09:40:53;;;;;;;;;;;;;;;;;;4393245;32;20126;-70
2022/11/26 09:43:28;;;;;;;38.20;14.65;;;;;;;;;;4392496;32;19988;-70
2022/11/26 09:45:58;;;;;;;50.40;16.50;;;;;;;;;;4386003;32;20437;-69
2022/11/26 09:48:24;;;;;;;40.05;14.90;;;;;;;;;;4390948;32;20081;-70
2022/11/26 09:50:50;;;;;;;49.13;16.92;;;;;;;;;;4378198;32;20027;-70
2022/11/26 09:53:15;;;;;;;;;;;;;;;;;;4399105;32;20399;-71
2022/11/26 09:55:42;;;;;;;52.53;15.17;;;;;;;;;;4406535;32;19944;-71
2022/11/26 09:58:22;;;;;;;50.75;17.75;;;;;;;;;;4406847;32;20039;-72
2022/11/26 10:00:49;;;;;;;50.22;17.20;;;;;;;;;;4391419;32;20104;-70
2022/11/26 10:03:16;;;;;;;40.10;15.32;;;;;;;;;;4406629;32;20064;-71
2022/11/26 10:05:47;;;;;;;40.42;12.90;;;;;;;;;;4405723;32;20027;-70
2022/11/26 10:08:28;;;;;;;45.45;13.00;;;;;;;;;;4392252;32;20101;-71
2022/11/26 10:10:55;;;;;;;37.92;13.62;;;;;;;;;;4391401;32;20037;-70
2022/11/26 10:13:29;;;;;;;31.77;12.40;;;;;;;;;;4405456;32;20026;-72
2022/11/26 10:15:58;;;;;;;36.40;12.27;;;;;;;;;;4405768;32;20132;-71
2022/11/26 10:18:24;;;;;;;42.75;13.55;;;;;;;;;;4405982;32;20030;-71
2022/11/26 10:20:49;;;;;;;;;;;;;;;;;;4405624;32;20101;-70
2022/11/26 10:23:32;;;;;;;40.03;13.38;;;;;;;;;;4405053;32;20308;-71
2022/11/26 10:26:11;;;;;;;41.63;13.50;;;;;;;;;;4391477;32;20345;-70
2022/11/26 10:28:46;;;;;;;41.22;14.40;;;;;;;;;;4406082;32;20030;-70
2022/11/26 10:31:16;;;;;;;33.80;12.43;;;;;;;;;;4405467;32;20030;-71
2022/11/26 10:34:02;;;;;;;40.72;12.90;;;;;;;;;;4405466;32;20419;-70
2022/11/26 10:36:35;;;;;;;34.03;11.90;;;;;;;;;;4406625;32;20066;-72
2022/11/26 10:39:00;;;;;;;38.00;13.35;;;;;;;;;;4396314;32;20175;-71
2022/11/26 10:41:26;;;;;;;;;;;;;;;;;;4390573;32;20090;-70
2022/11/26 10:43:51;;;;;;;36.55;12.20;;;;;;;;;;4390281;32;20338;-71
2022/11/26 10:46:16;;;;;;;;;;;;;;;;;;4389795;32;20115;-70
2022/11/26 10:48:41;;;;;;;36.60;12.30;;;;;;;;;;4389669;32;19973;-69
2022/11/26 10:51:08;;;;;;;;;;;;;;;;;;4390763;32;20123;-71
2022/11/26 10:53:45;;;;;;;35.00;10.93;;;;;;;;;;4389086;32;19956;-70
2022/11/26 10:56:15;;;;;;;40.45;12.80;;;;;;;;;;4390897;32;20106;-71
2022/11/26 10:58:41;;;;;;;35.83;11.00;;;;;;;;;;4388624;32;20706;-70
2022/11/26 11:01:07;;;;;;;35.90;10.93;;;;;;;;;;4373354;32;20066;-71
2022/11/26 11:03:33;;;;;;;;;;;;;;;;;;4374387;32;20054;-69
2022/11/26 11:06:23;;;;;;;27.65;9.90;;;;;;;;;;4387471;32;20005;-70
2022/11/26 11:08:49;;;;;;;24.95;10.15;;;;;;;;;;4388477;32;20173;-70
2022/11/26 11:11:17;;;;;;;27.08;9.60;;;;;;;;;;4388642;32;20043;-70
2022/11/26 11:13:43;;;;;;;27.75;10.18;;;;;;;;;;4377365;32;20050;-70
2022/11/26 11:16:10;;;;;;;26.37;9.38;;;;;;;;;;4397015;32;20045;-69
2022/11/26 11:18:35;;;;;;;27.20;10.07;;;;;;;;;;4404089;32;20404;-71
2022/11/26 11:21:03;;;;;;;;;;;;;;;;;;4391711;32;20023;-70
2022/11/26 11:23:36;;;;;;;35.65;9.45;;;;;;;;;;4404880;32;19951;-69
2022/11/26 11:26:06;;;;;;;28.33;10.77;;;;;;;;;;4404509;32;20026;-70
2022/11/26 11:28:32;;;;;;;35.10;10.93;;;;;;;;;;4405278;32;20084;-70
2022/11/26 11:31:12;;;;;;;46.47;12.57;;;;;;;;;;4405074;32;20046;-70
2022/11/26 11:33:37;;;;;;;28.70;10.73;;;;;;;;;;4390029;32;20057;-69
2022/11/26 11:36:02;;;;;;;;;;;;;;;;;;4406109;32;20038;-69
2022/11/26 11:38:29;;;;;;;39.70;12.73;;;;;;;;;;4390074;32;19985;-69
2022/11/26 11:40:55;;;;;;;38.70;13.00;;;;;;;;;;4404590;32;20019;-70
2022/11/26 11:43:22;;;;;;;;;;;;;;;;;;4404093;32;20365;-69
2022/11/26 11:46:07;;;;;;;32.72;11.27;;;;;;;;;;4397164;32;19959;-70
2022/11/26 11:48:47;;;;;;;26.58;12.27;;;;;;;;;;4388314;32;20057;-69
2022/11/26 11:51:34;;;;;;;32.08;11.75;;;;;;;;;;4389556;32;20023;-69
2022/11/26 11:54:09;;;;;;;33.08;11.63;;;;;;;;;;4390222;32;20022;-69
2022/11/26 11:56:42;;;;;;;32.00;11.25;;;;;;;;;;4390057;32;20041;-70
2022/11/26 11:59:35;;;;;;;28.12;10.82;;;;;;;;;;4390287;32;20058;-70
2022/11/26 12:02:20;;;;;;;28.52;10.68;;;;;;;;;;4391829;32;20061;-69
2022/11/26 12:05:03;;;;;;;40.55;10.63;;;;;;;;;;4392384;32;20026;-69
2022/11/26 12:07:29;;;;;;;32.55;10.27;;;;;;;;;;4398079;32;20026;-69
2022/11/26 12:09:54;;;;;;;;;;;;;;;;;;4407790;32;20082;-68
2022/11/26 12:12:25;;;;;;;28.33;10.10;;;;;;;;;;4408608;32;19933;-69
2022/11/26 12:14:54;;;;;;;28.80;9.18;;;;;;;;;;4407495;32;20109;-69
2022/11/26 12:17:45;;;;;;;26.58;10.40;;;;;;;;;;4407846;32;20023;-69
2022/11/26 12:20:17;;;;;;;29.02;9.40;;;;;;;;;;4377667;32;20034;-70
2022/11/26 12:23:03;;;;;;;27.45;9.32;;;;;;;;;;4407243;32;20105;-70
2022/11/26 12:25:30;;;;;;;27.65;8.23;;;;;;;;;;4406949;32;20057;-70
2022/11/26 12:28:05;;;;;;;20.48;7.85;;;;;;;;;;4408022;32;20092;-69
2022/11/26 12:30:43;;;;;;;24.58;7.85;;;;;;;;;;4406714;32;20396;-69
2022/11/26 12:33:16;;;;;;;28.27;9.45;;;;;;;;;;4392898;32;20062;-69
2022/11/26 12:35:51;;;;;;;26.60;8.20;;;;;;;;;;4393832;32;20322;-68
2022/11/26 12:38:28;;;;;;;29.33;8.77;;;;;;;;;;4383198;32;20022;-70
2022/11/26 12:41:02;;;;;;;25.62;7.60;;;;;;;;;;4391442;32;20092;-71
2022/11/26 12:43:46;;;;;;;21.45;7.45;;;;;;;;;;4378734;32;20026;-70
2022/11/26 12:46:33;;;;;;;27.05;8.38;;;;;;;;;;4391727;32;20102;-69
2022/11/26 12:49:05;;;;;;;22.08;8.40;;;;;;;;;;4391255;32;20448;-70
2022/11/26 12:51:35;;;;;;;31.90;9.98;;;;;;;;;;4392384;32;20031;-70
2022/11/26 12:54:13;;;;;;;26.08;7.95;;;;;;;;;;4390775;32;20035;-69
2022/11/26 12:57:13;;;;;;;25.95;7.70;;;;;;;;;;4389479;32;20097;-70
2022/11/26 12:59:45;;;;;;;22.85;6.97;;;;;;;;;;4335182;33;20122;-70
2022/11/26 13:02:26;;;;;;;22.70;8.75;;;;;;;;;;4378083;32;20034;-70
2022/11/26 13:04:52;;;;;;;21.02;7.20;;;;;;;;;;4390405;32;20074;-70
2022/11/26 13:07:36;;;;;;;20.08;6.90;;;;;;;;;;4375137;32;20199;-71
2022/11/26 13:10:20;;;;;;;20.00;6.75;;;;;;;;;;4387591;32;20072;-70
2022/11/26 13:12:51;;;;;;;22.48;7.45;;;;;;;;;;4374652;32;20034;-70
2022/11/26 13:15:21;;;;;;;24.50;8.15;;;;;;;;;;4387831;32;20416;-70
2022/11/26 13:17:47;;;;;;;26.48;7.07;;;;;;;;;;4375125;32;20102;-69
2022/11/26 13:20:33;;;;;;;26.23;7.43;;;;;;;;;;4388591;32;20482;-69
2022/11/26 13:23:21;;;;;;;20.33;7.00;;;;;;;;;;4349527;32;20078;-70
2022/11/26 13:26:05;;;;;;;26.98;7.18;;;;;;;;;;4379263;32;20038;-70
2022/11/26 13:28:43;;;;;;;20.77;6.10;;;;;;;;;;4388096;32;20428;-70
2022/11/26 13:31:23;;;;;;;24.02;7.37;;;;;;;;;;4377356;32;20069;-70
2022/11/26 13:33:54;;;;;;;23.38;7.40;;;;;;;;;;4391609;32;20059;-70
2022/11/26 13:36:45;;;;;;;19.80;5.93;;;;;;;;;;4390654;32;20023;-70
2022/11/26 13:39:29;;;;;;;20.48;7.03;;;;;;;;;;4387710;32;20124;-70
2022/11/26 13:42:10;;;;;;;25.98;7.50;;;;;;;;;;4376966;32;20480;-70
2022/11/26 13:44:45;;;;;;;20.05;6.50;;;;;;;;;;4377325;32;20023;-70
2022/11/26 13:47:40;;;;;;;29.67;6.95;;;;;;;;;;4378283;32;20393;-71
2022/11/26 13:50:10;;;;;;;21.40;6.22;;;;;;;;;;4374651;32;20026;-69
2022/11/26 13:52:35;;;;;;;29.12;6.85;;;;;;;;;;4391029;32;20035;-69
2022/11/26 13:55:03;;;;;;;19.25;7.12;;;;;;;;;;4390956;32;20106;-70
2022/11/26 13:57:35;;;;;;;25.60;7.07;;;;;;;;;;4390994;32;20058;-71
2022/11/26 14:00:01;;;;;;;28.02;7.68;;;;;;;;;;4390695;32;20134;-71
2022/11/26 14:02:26;;;;;;;;;;;;;;;;;;4377191;32;20058;-70
2022/11/26 14:04:52;;;;;;;24.87;6.10;;;;;;;;;;4390627;32;19944;-70
2022/11/26 14:07:17;;;;;;;21.23;7.12;;;;;;;;;;4384712;32;20413;-70
2022/11/26 14:09:46;;;;;;;24.77;7.32;;;;;;;;;;4377399;32;20082;-71
2022/11/26 14:12:15;;;;;;;23.42;7.07;;;;;;;;;;4354658;32;20023;-70
2022/11/26 14:14:41;;;;;;;23.65;5.97;;;;;;;;;;4376668;32;20039;-69
2022/11/26 14:17:06;;;;;;;24.37;6.10;;;;;;;;;;4375569;32;20050;-70
2022/11/26 14:19:38;;;;;;;15.50;5.70;;;;;;;;;;4376191;32;20019;-69
2022/11/26 14:22:04;;;;;;;21.52;5.55;;;;;;;;;;4362009;32;20295;-71
2022/11/26 14:24:29;;;;;;;;;;;;;;;;;;4375655;32;20113;-70
2022/11/26 14:26:54;;;;;;;20.40;5.18;;;;;;;;;;4361547;32;19938;-71
2022/11/26 14:29:20;;;;;;;23.65;5.50;;;;;;;;;;4375002;32;20045;-70
2022/11/26 14:31:52;;;;;;;18.40;5.95;;;;;;;;;;4375530;32;20073;-70
2022/11/26 14:34:22;;;;;;;25.73;5.97;;;;;;;;;;4362184;32;20050;-70
2022/11/26 14:37:00;;;;;;;24.52;5.75;;;;;;;;;;4375452;32;20462;-71
2022/11/26 14:39:26;;;;;;;27.45;6.65;;;;;;;;;;4370331;32;20035;-70
2022/11/26 14:41:52;;;;;;;22.85;7.30;;;;;;;;;;4397591;32;20038;-70
2022/11/26 14:44:17;;;;;;;;;;;;;;;;;;4405389;32;20365;-71
2022/11/26 14:46:44;;;;;;;16.40;5.45;;;;;;;;;;4391139;32;19948;-70
2022/11/26 14:49:15;;;;;;;18.70;6.20;;;;;;;;;;4405761;32;20118;-70
2022/11/26 14:51:42;;;;;;;25.65;6.43;;;;;;;;;;4405401;32;20059;-70
2022/11/26 14:54:12;;;;;;;24.08;6.75;;;;;;;;;;4405870;32;20019;-69
2022/11/26 14:56:38;;;;;;;25.08;6.55;;;;;;;;;;4392482;32;20034;-70
2022/11/26 14:59:04;;;;;;;18.98;5.12;;;;;;;;;;4404741;32;20079;-70
2022/11/26 15:01:31;;;;;;;23.25;5.90;;;;;;;;;;4404933;32;20101;-70
2022/11/26 15:04:00;;;;;;;24.12;6.00;;;;;;;;;;4406073;32;20027;-71